Time;durP1;ratioP1;P1;durP2;ratioP2;P2;SDS_P1;SDS_P2;PMS_P1;PMS_P2;Temp;Humidity;BMP_temperature;BMP_pressure;BME280_temperature;BME280_humidity;BME280_pressure;Samples;Min_cycle;Max_cycle;Signal;HPM_P1;HPM_P2
2023/10/08 00:01:21;;;;;;;0.15;0.10;;;15.40;99.90;15.00;100663.00;;;;4992944;27;89541;-64
2023/10/08 00:03:51;;;;;;;0.05;0.05;;;15.10;99.90;14.80;100655.00;;;;5005729;27;87436;-64
2023/10/08 00:06:19;;;;;;;0.20;0.20;;;14.90;99.90;14.70;100653.00;;;;4997295;27;88001;-65
2023/10/08 00:08:45;;;;;;;0.10;0.10;;;14.70;99.90;14.50;100657.00;;;;5007640;27;88135;-64
2023/10/08 00:11:11;;;;;;;0.20;0.13;;;14.60;99.90;14.40;100652.00;;;;5008452;27;97329;-63
2023/10/08 00:13:41;;;;;;;0.10;0.10;;;14.40;99.90;14.40;100654.00;;;;5008086;27;98177;-64
2023/10/08 00:16:10;;;;;;;0.10;0.10;;;14.40;99.90;14.30;100641.00;;;;5008682;27;88522;-63
2023/10/08 00:18:38;;;;;;;0.10;0.10;;;14.30;99.90;14.20;100655.00;;;;5011101;27;88836;-63
2023/10/08 00:21:52;;;;;;;0.10;0.10;;;14.20;99.90;14.20;100658.00;;;;5000994;27;88409;-64
2023/10/08 00:23:52;;;;;;;0.25;0.25;;;14.20;99.90;14.10;100654.00;;;;4993615;27;88337;-64
2023/10/08 00:26:27;;;;;;;0.17;0.17;;;14.10;99.90;14.00;100648.00;;;;5005743;27;88331;-63
2023/10/08 00:28:59;;;;;;;0.15;0.15;;;14.00;99.90;13.90;100668.00;;;;5008414;27;87245;-64
2023/10/08 00:31:30;;;;;;;0.10;0.10;;;13.90;99.90;13.80;100676.00;;;;4993343;27;89180;-63
2023/10/08 00:33:59;;;;;;;0.22;0.20;;;13.90;99.90;13.80;100681.00;;;;5010227;27;88138;-64
2023/10/08 00:36:25;;;;;;;0.00;0.00;;;13.80;99.90;13.70;100691.00;;;;5007731;27;115965;-64
2023/10/08 00:38:53;;;;;;;0.30;0.30;;;13.80;99.90;13.70;100689.00;;;;5009720;27;88927;-64
2023/10/08 00:41:21;;;;;;;0.10;0.10;;;13.70;99.90;13.60;100682.00;;;;4998086;27;88003;-63
2023/10/08 00:43:56;;;;;;;0.10;0.10;;;13.60;99.90;13.50;100677.00;;;;5013291;27;88992;-61
2023/10/08 00:46:26;;;;;;;0.08;0.08;;;13.50;99.90;13.40;100678.00;;;;5010227;27;88376;-64
2023/10/08 00:48:56;;;;;;;0.00;0.00;;;13.40;99.90;13.30;100690.00;;;;5014711;27;87940;-63
2023/10/08 00:54:06;;;;;;;0.00;0.00;;;13.30;99.90;13.20;100696.00;;;;4992784;27;87678;-62
2023/10/08 00:59:21;;;;;;;0.00;0.00;;;13.20;99.90;13.10;100708.00;;;;5012706;27;89173;-63
2023/10/08 01:02:19;;;;;;;0.00;0.00;;;13.10;99.90;13.10;100713.00;;;;5010682;27;89833;-63
2023/10/08 01:04:45;;;;;;;0.00;0.00;;;13.10;99.90;13.00;100709.00;;;;5007067;27;89195;-62
2023/10/08 01:07:15;;;;;;;0.10;0.10;;;13.10;99.90;13.00;100718.00;;;;5009283;27;101946;-63
2023/10/08 01:09:50;;;;;;;0.10;0.10;;;13.00;99.90;13.00;100721.00;;;;5010385;27;87911;-63
2023/10/08 01:14:53;;;;;;;0.00;0.00;;;13.00;99.90;13.00;100724.00;;;;5012748;27;88345;-62
2023/10/08 01:17:19;;;;;;;0.00;0.00;;;13.00;99.90;13.00;100731.00;;;;5000608;27;87952;-62
2023/10/08 01:19:50;;;;;;;0.00;0.00;;;13.00;99.90;13.00;100731.00;;;;5015100;27;86936;-62
2023/10/08 01:22:21;;;;;;;0.10;0.10;;;13.00;99.90;13.00;100734.00;;;;5012648;27;88792;-63
2023/10/08 01:24:51;;;;;;;0.23;0.20;;;13.00;99.90;13.00;100728.00;;;;5005535;27;88715;-62
2023/10/08 01:27:23;;;;;;;0.10;0.10;;;13.00;99.90;13.10;100740.00;;;;4979951;28;88925;-63
2023/10/08 01:29:52;;;;;;;0.10;0.10;;;13.00;99.90;13.10;100741.00;;;;4986772;28;87970;-62
2023/10/08 01:32:20;;;;;;;0.00;0.00;;;13.00;99.90;13.10;100738.00;;;;4994161;28;88145;-62
2023/10/08 01:34:46;;;;;;;0.00;0.00;;;13.10;99.90;13.10;100745.00;;;;4987930;28;88741;-64
2023/10/08 01:37:17;;;;;;;0.40;0.40;;;13.10;99.90;13.10;100739.00;;;;4988137;27;88345;-61
2023/10/08 01:39:50;;;;;;;0.00;0.00;;;13.10;99.90;13.10;100739.00;;;;4989711;28;96938;-63
2023/10/08 01:42:17;;;;;;;0.10;0.10;;;13.10;99.90;13.10;100760.00;;;;4983680;27;88332;-63
2023/10/08 01:44:48;;;;;;;0.10;0.10;;;13.10;99.90;13.10;100750.00;;;;4990447;27;87473;-63
2023/10/08 01:47:15;;;;;;;0.00;0.00;;;13.10;99.90;13.10;100757.00;;;;4988197;28;88192;-64
2023/10/08 01:49:49;;;;;;;0.00;0.00;;;13.10;99.90;13.00;100762.00;;;;4986545;27;89136;-62
2023/10/08 01:52:21;;;;;;;0.10;0.10;;;13.00;99.90;13.00;100760.00;;;;4987527;27;88928;-61
2023/10/08 01:54:54;;;;;;;4.60;0.20;;;13.00;99.90;12.80;100777.00;;;;4983375;28;88163;-62
2023/10/08 01:57:19;;;;;;;0.00;0.00;;;12.90;99.90;12.70;100782.00;;;;4979719;28;89140;-63
2023/10/08 01:59:45;;;;;;;0.03;0.03;;;12.70;99.90;12.60;100793.00;;;;4989192;28;108767;-63
2023/10/08 02:02:12;;;;;;;0.10;0.10;;;12.60;99.90;12.50;100785.00;;;;4977590;28;87936;-63
2023/10/08 02:04:38;;;;;;;0.00;0.00;;;12.60;99.90;12.40;100807.00;;;;4990702;28;88513;-62
2023/10/08 02:07:07;;;;;;;0.00;0.00;;;12.50;99.90;12.40;100816.00;;;;4989549;28;88834;-63
2023/10/08 02:09:42;;;;;;;0.00;0.00;;;12.40;99.90;12.30;100820.00;;;;4992763;28;87070;-62
2023/10/08 02:12:08;;;;;;;0.27;0.27;;;12.30;99.90;12.20;100816.00;;;;4979987;28;101153;-63
2023/10/08 02:14:35;;;;;;;0.17;0.17;;;12.30;99.90;12.10;100811.00;;;;4990447;28;88664;-63
2023/10/08 02:17:05;;;;;;;0.10;0.10;;;12.20;99.90;12.10;100828.00;;;;4986449;28;88958;-62
2023/10/08 02:19:32;;;;;;;0.30;0.30;;;12.30;99.90;12.00;100828.00;;;;4990066;28;87798;-63
2023/10/08 02:21:58;;;;;;;0.20;0.20;;;12.10;99.90;12.00;100856.00;;;;4987742;28;88998;-63
2023/10/08 02:24:25;;;;;;;0.30;0.13;;;12.00;99.90;11.90;100858.00;;;;4988313;27;88549;-61
2023/10/08 02:26:55;;;;;;;0.10;0.10;;;11.90;99.90;11.80;100854.00;;;;5008938;27;89247;-64
2023/10/08 02:29:26;;;;;;;0.20;0.20;;;11.90;99.90;11.70;100858.00;;;;4984234;27;88012;-62
2023/10/08 02:31:55;;;;;;;0.20;0.20;;;11.80;99.90;11.60;100882.00;;;;5008567;27;88179;-62
2023/10/08 02:34:21;;;;;;;0.10;0.10;;;11.60;99.90;11.50;100903.00;;;;5006669;27;88344;-62
2023/10/08 02:36:47;;;;;;;0.63;0.63;;;11.60;99.90;11.40;100912.00;;;;5005481;27;95744;-62
2023/10/08 02:39:14;;;;;;;1.03;0.30;;;11.50;99.90;11.30;100914.00;;;;5003221;27;108623;-62
2023/10/08 02:41:46;;;;;;;1.57;0.33;;;11.40;99.90;11.20;100895.00;;;;5008612;27;88889;-63
2023/10/08 02:44:14;;;;;;;0.33;0.20;;;11.30;99.90;11.10;100896.00;;;;5008681;27;88159;-62
2023/10/08 02:46:47;;;;;;;1.07;0.57;;;11.20;99.90;11.00;100897.00;;;;5009650;27;88430;-62
2023/10/08 02:49:20;;;;;;;0.73;0.60;;;11.10;99.90;10.90;100898.00;;;;5004732;27;88095;-62
2023/10/08 02:51:50;;;;;;;0.70;0.63;;;11.00;99.90;10.90;100917.00;;;;5010610;27;87822;-62
2023/10/08 02:54:27;;;;;;;0.27;0.27;;;11.00;99.90;10.90;100931.00;;;;5006177;27;88815;-61
2023/10/08 02:56:58;;;;;;;0.57;0.20;;;10.90;99.90;10.90;100937.00;;;;5006429;27;89018;-62
2023/10/08 02:59:38;;;;;;;1.03;0.50;;;10.90;99.90;10.80;100930.00;;;;5007901;27;87313;-62
2023/10/08 03:02:13;;;;;;;0.63;0.63;;;10.90;99.90;10.80;100931.00;;;;5005777;27;88127;-62
2023/10/08 03:04:41;;;;;;;0.90;0.90;;;10.80;99.90;10.80;100908.00;;;;5006046;27;88125;-62
2023/10/08 03:07:11;;;;;;;0.40;0.30;;;10.80;99.90;10.80;100940.00;;;;5005526;27;88611;-63
2023/10/08 03:09:41;;;;;;;0.43;0.43;;;10.80;99.90;10.70;100934.00;;;;5013335;27;87818;-62
2023/10/08 03:12:10;;;;;;;0.57;0.47;;;10.80;99.90;10.70;100952.00;;;;5007321;27;88350;-61
2023/10/08 03:14:48;;;;;;;0.33;0.33;;;10.80;99.90;10.70;100962.00;;;;5011014;27;89204;-61
2023/10/08 03:17:19;;;;;;;0.60;0.40;;;10.70;99.90;10.70;100978.00;;;;5008290;27;88331;-61
2023/10/08 03:19:46;;;;;;;0.77;0.40;;;10.70;99.90;10.70;100968.00;;;;5010228;27;87874;-62
2023/10/08 03:22:12;;;;;;;1.03;0.53;;;10.70;99.90;10.70;100984.00;;;;5004198;27;88272;-62
2023/10/08 03:24:41;;;;;;;0.60;0.50;;;10.70;99.90;10.70;100993.00;;;;5003759;27;88817;-62
2023/10/08 03:27:11;;;;;;;0.27;0.27;;;10.80;99.90;10.70;100977.00;;;;5005584;27;88377;-62
2023/10/08 03:29:41;;;;;;;0.33;0.33;;;10.80;99.90;10.70;100979.00;;;;5006492;27;88066;-63
2023/10/08 03:32:13;;;;;;;1.70;0.60;;;10.80;99.90;10.70;100976.00;;;;5007896;27;88671;-64
2023/10/08 03:34:43;;;;;;;1.90;0.70;;;10.70;99.90;10.70;100987.00;;;;5006282;27;88011;-62
2023/10/08 03:37:10;;;;;;;0.53;0.40;;;10.80;99.90;10.70;100981.00;;;;5003195;27;89385;-62
2023/10/08 03:39:51;;;;;;;1.07;0.60;;;10.80;99.90;10.80;100980.00;;;;4988614;27;88954;-63
2023/10/08 03:42:40;;;;;;;0.40;0.40;;;10.70;99.90;10.70;100983.00;;;;5008289;27;88142;-61
2023/10/08 03:45:10;;;;;;;0.70;0.60;;;10.80;99.90;10.70;100997.00;;;;5006351;27;89473;-61
2023/10/08 03:47:41;;;;;;;0.70;0.70;;;10.80;99.90;10.70;101001.00;;;;5006188;27;88055;-62
2023/10/08 03:50:17;;;;;;;2.37;0.80;;;10.80;99.90;10.70;101013.00;;;;5009437;27;87175;-59
2023/10/08 03:52:44;;;;;;;3.23;0.80;;;10.80;99.90;10.80;101022.00;;;;5002492;27;88104;-61
2023/10/08 03:57:48;;;;;;;0.60;0.60;;;10.80;99.90;10.80;100995.00;;;;5003140;27;88982;-62
2023/10/08 04:00:28;;;;;;;0.80;0.80;;;10.80;99.90;10.80;101007.00;;;;5004144;27;88016;-62
2023/10/08 04:02:55;;;;;;;2.00;0.70;;;10.80;99.90;10.80;101007.00;;;;5007767;27;87617;-63
2023/10/08 04:05:32;;;;;;;0.37;0.37;;;10.80;99.90;10.80;101005.00;;;;5004131;27;88189;-62
2023/10/08 04:13:00;;;;;;;0.47;0.47;;;10.90;99.90;10.80;101017.00;;;;4989760;27;88049;-61
2023/10/08 04:15:27;;;;;;;2.90;0.80;;;10.90;99.90;10.80;101024.00;;;;5007206;27;110840;-62
2023/10/08 04:17:52;;;;;;;0.50;0.50;;;10.90;99.90;10.90;101019.00;;;;5008901;27;88141;-61
2023/10/08 04:23:20;;;;;;;1.90;0.70;;;10.90;99.90;10.90;101014.00;;;;5006637;27;88980;-62
2023/10/08 04:25:54;;;;;;;3.13;0.70;;;10.90;99.90;10.90;101019.00;;;;5004367;27;88218;-62
2023/10/08 04:28:20;;;;;;;1.23;0.77;;;10.90;99.90;10.90;101011.00;;;;4987849;27;88637;-62
2023/10/08 04:30:47;;;;;;;1.90;1.23;;;10.90;99.90;10.90;101028.00;;;;5006546;27;101581;-62
2023/10/08 04:33:14;;;;;;;2.33;0.70;;;10.90;99.90;10.80;101039.00;;;;5005314;27;88164;-62
2023/10/08 04:35:55;;;;;;;1.60;0.70;;;10.90;99.90;10.80;101052.00;;;;5007169;27;89306;-62
2023/10/08 04:38:23;;;;;;;0.20;0.20;;;10.90;99.90;10.80;101058.00;;;;5008585;27;88529;-62
2023/10/08 04:40:53;;;;;;;0.93;0.60;;;10.90;99.90;10.80;101055.00;;;;5007756;27;87316;-62
2023/10/08 04:43:30;;;;;;;0.77;0.60;;;10.90;99.90;10.80;101053.00;;;;5009729;27;87992;-63
2023/10/08 04:45:57;;;;;;;1.67;1.10;;;10.90;99.90;10.80;101059.00;;;;5007062;27;88317;-63
2023/10/08 04:48:24;;;;;;;0.73;0.40;;;10.50;99.90;10.80;101065.00;;;;5006884;27;88922;-62
2023/10/08 04:50:58;;;;;;;0.97;0.87;;;10.80;99.90;10.80;101062.00;;;;5007868;27;87965;-63
2023/10/08 04:53:32;;;;;;;4.70;1.03;;;10.90;99.90;10.80;101069.00;;;;5009048;27;89205;-61
2023/10/08 04:56:13;;;;;;;0.77;0.43;;;10.80;99.90;10.80;101074.00;;;;5007436;27;88216;-62
2023/10/08 04:58:46;;;;;;;0.70;0.50;;;10.80;99.90;10.70;101086.00;;;;5008026;27;88034;-62
2023/10/08 05:01:29;;;;;;;0.20;0.20;;;10.80;99.90;10.70;101088.00;;;;5006498;27;87970;-62
2023/10/08 05:06:50;;;;;;;0.80;0.80;;;10.80;99.90;10.70;101095.00;;;;5006831;27;87314;-62
2023/10/08 05:12:08;;;;;;;0.53;0.53;;;10.70;99.90;10.70;101115.00;;;;5005088;27;88089;-61
2023/10/08 05:17:21;;;;;;;4.20;0.93;;;10.70;99.90;10.70;101128.00;;;;5007533;27;89250;-61
2023/10/08 05:22:43;;;;;;;1.77;0.60;;;10.70;99.90;10.70;101134.00;;;;5007955;27;88131;-62
2023/10/08 05:36:02;;;;;;;1.63;0.83;;;10.80;99.90;10.70;101128.00;;;;4990971;27;87928;-61
2023/10/08 05:46:19;;;;;;;0.97;0.97;;;10.80;99.90;10.70;101169.00;;;;5007390;27;87639;-60
2023/10/08 05:49:01;;;;;;;1.40;0.87;;;10.80;99.90;10.70;101142.00;;;;5009889;27;88996;-61
2023/10/08 05:51:44;;;;;;;4.90;1.57;;;10.80;99.90;10.70;101151.00;;;;5009535;27;88472;-61
2023/10/08 06:02:39;;;;;;;1.20;0.53;;;10.80;99.90;10.70;101166.00;;;;5007034;27;88264;-59
2023/10/08 06:05:20;;;;;;;0.80;0.60;;;10.80;99.90;10.80;101199.00;;;;5009393;27;87867;-60
2023/10/08 06:07:55;;;;;;;0.83;0.80;;;10.80;99.90;10.80;101196.00;;;;5008909;27;88858;-61
2023/10/08 06:13:13;;;;;;;0.70;0.70;;;10.90;99.90;10.90;101197.00;;;;5008796;27;97037;-61
2023/10/08 06:15:47;;;;;;;2.13;0.80;;;10.90;99.90;10.90;101194.00;;;;5004051;27;87919;-60
2023/10/08 06:18:14;;;;;;;0.57;0.57;;;10.90;99.90;10.90;101202.00;;;;5009694;27;87948;-61
2023/10/08 06:20:44;;;;;;;0.57;0.57;;;10.90;99.90;10.90;101209.00;;;;5012431;27;88167;-61
2023/10/08 06:23:13;;;;;;;1.27;0.90;;;11.00;99.90;11.00;101192.00;;;;5007693;27;88227;-59
2023/10/08 06:25:45;;;;;;;0.80;0.67;;;11.00;99.90;11.00;101201.00;;;;5008588;27;87304;-60
2023/10/08 06:28:20;;;;;;;1.53;0.57;;;11.00;99.90;11.00;101208.00;;;;5010156;27;87689;-60
2023/10/08 06:30:56;;;;;;;0.50;0.47;;;11.00;99.90;11.00;101210.00;;;;5005913;27;88734;-62
2023/10/08 06:33:25;;;;;;;1.90;0.63;;;11.10;99.90;11.10;101236.00;;;;5010773;27;88855;-62
2023/10/08 06:36:13;;;;;;;5.13;1.17;;;11.10;99.90;11.10;101254.00;;;;5008105;27;89181;-62
2023/10/08 06:38:41;;;;;;;0.50;0.50;;;11.10;99.90;11.10;101256.00;;;;5009037;27;87868;-61
2023/10/08 06:41:10;;;;;;;0.73;0.73;;;11.20;99.90;11.20;101242.00;;;;5008656;27;90922;-61
2023/10/08 06:43:48;;;;;;;0.63;0.63;;;11.20;99.90;11.20;101268.00;;;;5006006;27;89328;-61
2023/10/08 06:46:14;;;;;;;0.90;0.80;;;11.20;99.90;11.30;101272.00;;;;5003360;27;88061;-61
2023/10/08 06:48:44;;;;;;;1.97;0.60;;;11.30;99.90;11.30;101272.00;;;;5008836;27;87823;-63
2023/10/08 06:51:12;;;;;;;5.20;0.87;;;11.30;99.90;11.40;101279.00;;;;5005941;27;88321;-61
2023/10/08 06:53:42;;;;;;;1.80;0.63;;;11.40;99.90;11.40;101259.00;;;;5005344;27;88135;-61
2023/10/08 06:56:11;;;;;;;0.63;0.63;;;11.40;99.90;11.40;101253.00;;;;5006166;27;87878;-62
2023/10/08 06:58:38;;;;;;;0.90;0.57;;;11.50;99.90;11.50;101267.00;;;;5004354;27;88810;-62
2023/10/08 07:01:08;;;;;;;0.60;0.60;;;11.50;99.90;11.60;101288.00;;;;5006340;27;89185;-61
2023/10/08 07:03:38;;;;;;;1.00;0.90;;;11.50;99.90;11.60;101292.00;;;;5003208;27;88565;-61
2023/10/08 07:06:16;;;;;;;2.10;1.03;;;11.60;99.90;11.60;101299.00;;;;5004822;27;87981;-60
2023/10/08 07:08:47;;;;;;;2.70;1.10;;;11.60;99.90;11.70;101296.00;;;;5003411;27;87853;-63
2023/10/08 07:11:13;;;;;;;0.60;0.60;;;11.70;99.90;11.70;101306.00;;;;5002086;27;88151;-61
2023/10/08 07:13:42;;;;;;;6.37;2.00;;;11.70;99.90;11.80;101319.00;;;;5004824;27;88839;-62
2023/10/08 07:16:11;;;;;;;0.70;0.70;;;11.70;99.90;11.80;101322.00;;;;5006485;27;87214;-58
2023/10/08 07:18:38;;;;;;;5.60;1.37;;;11.80;99.90;11.90;101321.00;;;;5004214;27;87998;-62
2023/10/08 07:21:12;;;;;;;1.97;1.20;;;11.90;99.90;11.90;101325.00;;;;5008512;27;88914;-62
2023/10/08 07:23:57;;;;;;;1.50;1.37;;;11.90;99.90;12.00;101330.00;;;;5003405;27;88739;-63
2023/10/08 07:26:35;;;;;;;0.83;0.83;;;12.00;99.90;12.10;101342.00;;;;5003625;27;88139;-61
2023/10/08 07:29:08;;;;;;;2.07;1.33;;;12.10;99.90;12.10;101348.00;;;;5004257;27;88209;-63
2023/10/08 07:31:41;;;;;;;2.37;0.90;;;12.10;99.90;12.20;101356.00;;;;5004311;27;89071;-62
2023/10/08 07:34:25;;;;;;;1.70;1.47;;;12.20;99.90;12.30;101349.00;;;;5001711;27;88991;-62
2023/10/08 07:36:54;;;;;;;2.13;1.30;;;12.30;99.90;12.40;101345.00;;;;5006231;27;87869;-61
2023/10/08 07:41:51;;;;;;;1.83;1.27;;;12.40;99.90;12.50;101366.00;;;;5003809;27;87591;-61
2023/10/08 07:44:21;;;;;;;0.93;0.87;;;12.50;99.90;12.60;101361.00;;;;5000345;27;96769;-61
2023/10/08 07:46:54;;;;;;;1.80;1.30;;;12.60;99.90;12.70;101355.00;;;;5003332;27;87908;-62
2023/10/08 07:49:20;;;;;;;2.83;1.13;;;12.60;99.90;12.70;101361.00;;;;5003714;27;88731;-62
2023/10/08 07:51:50;;;;;;;1.60;1.03;;;12.80;99.90;12.80;101383.00;;;;4999387;27;89440;-62
2023/10/08 07:54:19;;;;;;;1.70;1.03;;;12.70;99.90;12.90;101389.00;;;;5002080;27;88468;-63
2023/10/08 07:56:47;;;;;;;0.80;0.70;;;12.80;99.90;12.90;101393.00;;;;5002036;27;87796;-62
2023/10/08 07:59:16;;;;;;;1.57;1.20;;;12.90;99.90;12.90;101393.00;;;;5003296;27;88120;-63
2023/10/08 08:01:43;;;;;;;1.37;0.50;;;12.90;99.90;13.00;101399.00;;;;5004710;27;87853;-63
2023/10/08 08:04:21;;;;;;;0.50;0.50;;;12.90;99.90;13.00;101403.00;;;;5003264;27;88455;-64
2023/10/08 08:06:50;;;;;;;0.70;0.70;;;12.90;99.90;13.00;101404.00;;;;5000166;27;87184;-63
2023/10/08 08:09:23;;;;;;;1.80;1.03;;;13.00;99.90;13.10;101404.00;;;;5002676;27;89180;-62
2023/10/08 08:11:57;;;;;;;1.00;0.90;;;13.00;99.90;13.10;101414.00;;;;5001500;27;87893;-62
2023/10/08 08:14:24;;;;;;;8.27;1.43;;;13.10;99.90;13.20;101411.00;;;;5002269;27;88907;-63
2023/10/08 08:16:50;;;;;;;0.83;0.83;;;13.10;99.90;13.20;101411.00;;;;5005118;27;87990;-62
2023/10/08 08:19:17;;;;;;;0.97;0.90;;;13.10;99.90;13.30;101411.00;;;;5004225;27;94500;-62
2023/10/08 08:21:46;;;;;;;1.10;0.87;;;13.20;99.90;13.30;101423.00;;;;5002985;27;88898;-62
2023/10/08 08:24:13;;;;;;;1.77;0.80;;;13.30;99.90;13.40;101421.00;;;;5004088;27;87967;-62
2023/10/08 08:26:40;;;;;;;3.07;2.00;;;13.30;99.90;13.50;101424.00;;;;5003602;27;107078;-61
2023/10/08 08:29:15;;;;;;;5.10;1.77;;;13.40;99.90;13.60;101431.00;;;;5000468;27;88063;-59
2023/10/08 08:31:46;;;;;;;1.55;0.85;;;13.50;99.90;13.70;101441.00;;;;4110690;27;10000554;-61
2023/10/08 08:34:19;;;;;;;0.97;0.87;;;13.70;99.90;13.80;101426.00;;;;5000461;27;88069;-61
2023/10/08 08:36:48;;;;;;;1.17;0.85;;;13.70;99.90;13.90;101432.00;;;;5006396;27;88485;-61
2023/10/08 08:39:32;;;;;;;1.40;0.70;;;13.90;99.90;14.10;101426.00;;;;5005360;27;88940;-59
2023/10/08 08:42:00;;;;;;;1.05;0.70;;;14.00;99.90;14.20;101434.00;;;;5000443;27;88093;-60
2023/10/08 08:44:32;;;;;;;2.45;1.40;;;14.10;99.90;14.40;101438.00;;;;5000308;27;89103;-60
2023/10/08 08:47:04;;;;;;;1.20;1.10;;;14.30;99.90;14.70;101443.00;;;;5001300;27;88722;-60
2023/10/08 08:49:37;;;;;;;1.02;0.93;;;14.60;99.90;15.00;101457.00;;;;5005541;27;88452;-59
2023/10/08 08:52:03;;;;;;;1.95;0.90;;;14.80;99.90;15.10;101443.00;;;;4987853;27;87825;-60
2023/10/08 08:54:30;;;;;;;0.80;0.73;;;15.00;99.90;15.30;101445.00;;;;4982383;27;87830;-59
2023/10/08 08:56:59;;;;;;;0.70;0.70;;;15.10;99.90;15.30;101449.00;;;;4984848;27;88296;-59
2023/10/08 08:59:26;;;;;;;1.55;1.35;;;15.20;99.90;15.30;101450.00;;;;4996366;27;88057;-60
2023/10/08 09:01:54;;;;;;;3.40;0.77;;;15.20;99.90;15.20;101459.00;;;;5006294;27;88701;-59
2023/10/08 09:04:30;;;;;;;0.40;0.40;;;15.20;99.90;15.20;101452.00;;;;5008710;27;88615;-61
2023/10/08 09:06:55;;;;;;;1.35;0.80;;;15.20;99.90;15.30;101456.00;;;;5006445;27;88942;-57
2023/10/08 09:09:25;;;;;;;0.60;0.60;;;15.20;99.90;15.40;101455.00;;;;5004480;27;88180;-60
2023/10/08 09:11:52;;;;;;;0.85;0.65;;;15.30;99.90;15.80;101460.00;;;;5001704;27;88169;-60
2023/10/08 09:14:25;;;;;;;1.45;0.90;;;15.50;99.90;16.00;101467.00;;;;5006298;27;88128;-60
2023/10/08 09:16:54;;;;;;;0.60;0.60;;;15.80;99.90;16.40;101471.00;;;;5004015;27;89138;-60
2023/10/08 09:19:22;;;;;;;0.73;0.73;;;16.10;99.90;16.80;101473.00;;;;5002647;27;88673;-60
2023/10/08 09:22:00;;;;;;;1.40;0.60;;;16.50;99.90;17.50;101469.00;;;;4972303;27;87401;-60
2023/10/08 09:24:26;;;;;;;1.85;1.02;;;17.10;99.90;18.10;101476.00;;;;4986104;27;88027;-60
2023/10/08 09:26:58;;;;;;;0.60;0.60;;;17.70;99.90;18.70;101488.00;;;;5006111;27;117053;-60
2023/10/08 09:29:24;;;;;;;3.10;1.25;;;18.20;99.90;19.30;101490.00;;;;5011395;27;89126;-60
2023/10/08 09:31:57;;;;;;;3.88;2.08;;;18.80;99.90;19.70;101486.00;;;;4987241;27;88327;-61
2023/10/08 09:34:30;;;;;;;5.55;1.42;;;19.30;99.90;19.80;101489.00;;;;5002983;27;87959;-61
2023/10/08 09:36:59;;;;;;;0.95;0.77;;;19.50;99.90;19.80;101495.00;;;;5004080;27;87907;-62
2023/10/08 09:39:28;;;;;;;1.30;1.20;;;19.50;99.90;19.80;101487.00;;;;4991937;27;88800;-60
2023/10/08 09:41:55;;;;;;;2.03;1.20;;;19.60;99.90;19.60;101492.00;;;;5009298;27;87997;-62
2023/10/08 09:44:24;;;;;;;2.35;1.33;;;19.50;99.90;19.70;101489.00;;;;4993083;27;88835;-59
2023/10/08 09:47:12;;;;;;;2.25;1.85;;;19.50;99.90;19.90;101490.00;;;;5003613;27;87585;-61
2023/10/08 09:50:01;;;;;;;5.10;1.83;;;19.60;99.90;20.10;101501.00;;;;4983464;27;117747;-60
2023/10/08 09:52:49;;;;;;;3.33;1.73;;;19.90;99.80;20.00;101499.00;;;;5005957;27;99269;-60
2023/10/08 09:55:18;;;;;;;5.82;2.83;;;19.80;99.30;19.80;101513.00;;;;4992922;27;92111;-61
2023/10/08 09:57:44;;;;;;;2.63;2.38;;;19.70;98.90;19.50;101517.00;;;;4999577;27;98790;-61
2023/10/08 10:00:15;;;;;;;10.65;6.82;;;19.50;98.70;19.30;101522.00;;;;5002875;27;94898;-61
2023/10/08 10:02:44;;;;;;;7.18;5.00;;;19.30;98.50;19.10;101526.00;;;;5005579;27;88146;-62
2023/10/08 10:05:22;;;;;;;2.30;2.10;;;19.10;98.30;19.00;101531.00;;;;5007684;27;87883;-60
2023/10/08 10:07:48;;;;;;;3.30;1.00;;;18.90;98.30;19.20;101537.00;;;;5006287;27;88483;-63
2023/10/08 10:10:31;;;;;;;3.33;1.38;;;19.00;98.10;19.30;101532.00;;;;5005043;27;92520;-63
2023/10/08 10:13:07;;;;;;;2.05;1.27;;;19.10;96.90;19.60;101533.00;;;;5003785;27;87310;-61
2023/10/08 10:15:34;;;;;;;1.50;1.15;;;19.30;96.70;19.80;101541.00;;;;5007886;27;88194;-62
2023/10/08 10:18:28;;;;;;;3.25;1.83;;;19.50;96.20;19.90;101544.00;;;;4987709;27;88620;-61
2023/10/08 10:21:00;;;;;;;0.80;0.80;;;19.70;95.50;20.20;101547.00;;;;4982872;27;89010;-64
2023/10/08 10:23:43;;;;;;;1.98;1.55;;;19.90;95.30;20.70;101547.00;;;;4984555;27;87932;-64
2023/10/08 10:26:35;;;;;;;1.02;0.70;;;20.20;95.10;20.90;101549.00;;;;5002976;27;103827;-64
2023/10/08 10:29:16;;;;;;;1.20;1.10;;;20.50;94.30;21.00;101544.00;;;;4987448;27;88487;-63
2023/10/08 10:31:46;;;;;;;1.67;0.70;;;20.70;93.30;21.20;101541.00;;;;5003410;27;88874;-63
2023/10/08 10:34:16;;;;;;;1.63;1.20;;;20.90;92.60;21.60;101535.00;;;;4983056;27;88308;-63
2023/10/08 10:36:48;;;;;;;1.75;1.60;;;21.10;91.90;22.10;101548.00;;;;4973762;27;88140;-64
2023/10/08 10:39:28;;;;;;;1.38;0.95;;;21.50;91.70;22.40;101552.00;;;;5001770;27;87183;-62
2023/10/08 10:41:57;;;;;;;0.65;0.65;;;21.90;91.30;22.40;101550.00;;;;5001314;27;87934;-63
2023/10/08 10:44:26;;;;;;;1.00;0.75;;;22.00;90.30;22.00;101552.00;;;;5001793;27;88104;-64
2023/10/08 10:47:00;;;;;;;2.17;1.10;;;21.80;89.30;21.60;101555.00;;;;4982772;27;108795;-64
2023/10/08 10:49:32;;;;;;;1.35;0.77;;;21.50;89.10;21.20;101557.00;;;;5001452;27;88810;-65
2023/10/08 10:51:58;;;;;;;0.75;0.45;;;21.10;89.90;20.80;101552.00;;;;5007901;27;89311;-63
2023/10/08 10:54:25;;;;;;;1.02;0.95;;;20.70;90.10;20.80;101560.00;;;;5006506;27;98966;-65
2023/10/08 10:57:05;;;;;;;1.50;1.13;;;20.60;90.40;21.20;101562.00;;;;5002908;27;88937;-64
2023/10/08 10:59:38;;;;;;;1.35;0.77;;;20.80;90.20;21.50;101560.00;;;;5005655;27;88475;-64
2023/10/08 11:02:20;;;;;;;0.75;0.75;;;21.00;89.10;21.40;101564.00;;;;4980678;27;91589;-64
2023/10/08 11:04:51;;;;;;;1.17;1.10;;;21.10;87.40;21.00;101564.00;;;;4986093;27;87025;-63
2023/10/08 11:07:20;;;;;;;1.73;0.75;;;20.90;85.80;20.70;101564.00;;;;5006378;27;87778;-63
2023/10/08 11:09:52;;;;;;;1.45;0.43;;;20.60;86.50;20.90;101553.00;;;;4990629;27;89042;-64
2023/10/08 11:12:22;;;;;;;0.77;0.77;;;20.60;86.80;21.30;101560.00;;;;4994135;27;89508;-64
2023/10/08 11:14:51;;;;;;;0.63;0.50;;;20.80;86.90;21.80;101549.00;;;;5003180;27;88878;-63
2023/10/08 11:17:24;;;;;;;0.50;0.45;;;21.20;86.50;22.30;101561.00;;;;5007569;27;88174;-63
2023/10/08 11:19:50;;;;;;;0.77;0.77;;;21.70;85.50;22.80;101568.00;;;;5002987;27;88114;-66
2023/10/08 11:22:18;;;;;;;2.92;0.75;;;22.20;82.70;23.30;101575.00;;;;5005733;27;88360;-64
2023/10/08 11:24:48;;;;;;;2.28;0.65;;;22.60;81.20;23.70;101567.00;;;;5004795;27;88026;-64
2023/10/08 11:27:58;;;;;;;0.90;0.70;;;23.10;79.50;24.20;101577.00;;;;5006542;27;88219;-64
2023/10/08 11:30:11;;;;;;;0.70;0.68;;;23.50;77.60;24.60;101568.00;;;;5000087;27;87411;-64
2023/10/08 11:32:38;;;;;;;0.47;0.28;;;24.00;76.00;24.90;101561.00;;;;5006615;27;88291;-64
2023/10/08 11:35:15;;;;;;;0.47;0.47;;;24.30;73.30;25.20;101556.00;;;;4986939;27;88128;-64
2023/10/08 11:37:50;;;;;;;0.47;0.45;;;24.60;70.70;25.50;101561.00;;;;5005417;27;89800;-64
2023/10/08 11:40:34;;;;;;;1.50;0.30;;;24.90;69.80;25.90;101566.00;;;;5005514;27;88535;-64
2023/10/08 11:43:05;;;;;;;0.40;0.40;;;25.20;66.60;26.30;101555.00;;;;5003328;27;89013;-64
2023/10/08 11:45:47;;;;;;;1.20;0.60;;;25.60;64.70;26.50;101562.00;;;;5004588;27;110260;-64
2023/10/08 11:48:21;;;;;;;0.68;0.60;;;25.80;63.20;26.50;101553.00;;;;5004930;27;87846;-64
2023/10/08 11:50:50;;;;;;;1.50;0.50;;;25.90;61.90;26.70;101550.00;;;;5001288;27;89729;-64
2023/10/08 11:53:18;;;;;;;0.30;0.25;;;26.10;60.40;26.80;101555.00;;;;5004145;27;88255;-65
2023/10/08 11:55:44;;;;;;;0.63;0.22;;;26.20;58.40;26.90;101550.00;;;;4988010;27;90759;-64
2023/10/08 11:58:17;;;;;;;1.27;0.40;;;26.30;56.90;26.90;101553.00;;;;5001697;27;88027;-64
2023/10/08 12:00:44;;;;;;;0.40;0.40;;;26.40;55.40;26.90;101558.00;;;;5003231;27;89142;-66
2023/10/08 12:03:12;;;;;;;0.80;0.50;;;26.40;54.80;26.90;101556.00;;;;4988443;27;91833;-65
2023/10/08 12:05:46;;;;;;;0.17;0.17;;;26.40;53.70;27.00;101552.00;;;;5002247;27;88175;-65
2023/10/08 12:08:17;;;;;;;2.40;0.45;;;26.50;53.10;27.10;101552.00;;;;5001708;27;88439;-66